Time;durP1;ratioP1;P1;durP2;ratioP2;P2;SDS_P1;SDS_P2;PMS_P1;PMS_P2;Temp;Humidity;BMP_temperature;BMP_pressure;BME280_temperature;BME280_humidity;BME280_pressure;Samples;Min_cycle;Max_cycle;Signal;HPM_P1;HPM_P2
2023/02/23 07:20:06;;;;;;;19.30;13.80;;;7.40;99.90;;;;;;5115026;27;20905;-79
2023/02/23 07:26:18;;;;;;;25.37;17.20;;;7.60;99.90;;;;;;5138056;27;20287;-79
2023/02/23 07:32:02;;;;;;;17.13;12.00;;;7.70;99.90;;;;;;5117086;27;20340;-79
2023/02/23 07:37:03;;;;;;;15.10;10.20;;;7.90;99.90;;;;;;5137538;27;20735;-79
2023/02/23 07:41:24;;;;;;;17.17;10.40;;;8.00;99.90;;;;;;5138283;27;20276;-79
2023/02/23 07:45:16;;;;;;;13.73;9.13;;;8.10;99.90;;;;;;5138076;27;20267;-80
2023/02/23 07:49:10;;;;;;;15.80;9.70;;;8.20;99.90;;;;;;5138354;27;20272;-79
2023/02/23 07:53:14;;;;;;;15.43;8.37;;;8.30;99.90;;;;;;5136896;27;20282;-79
2023/02/23 07:57:14;;;;;;;10.97;7.13;;;8.30;99.90;;;;;;5137457;27;20287;-79
2023/02/23 08:01:23;;;;;;;8.70;5.90;;;8.40;99.90;;;;;;5150758;27;20280;-80
2023/02/23 08:05:29;;;;;;;9.67;6.13;;;8.30;99.90;;;;;;5135823;27;20284;-80
2023/02/23 08:09:40;;;;;;;8.50;5.97;;;8.30;99.90;;;;;;5137048;27;20273;-79
2023/02/23 08:13:45;;;;;;;7.17;5.37;;;8.30;99.90;;;;;;5136376;27;20358;-80
2023/02/23 08:17:40;;;;;;;8.23;4.90;;;8.30;99.90;;;;;;5136978;27;20270;-79
2023/02/23 08:21:36;;;;;;;6.83;4.87;;;8.30;99.90;;;;;;5137411;27;20271;-80
2023/02/23 08:25:30;;;;;;;7.60;4.67;;;8.30;99.90;;;;;;5136640;27;20798;-80
2023/02/23 08:29:16;;;;;;;6.83;4.20;;;8.30;99.90;;;;;;5136696;27;20268;-80
2023/02/23 08:34:07;;;;;;;7.40;4.57;;;8.40;99.90;;;;;;5136577;27;20281;-80
2023/02/23 08:36:33;;;;;;;7.00;4.20;;;8.50;99.90;;;;;;5126794;28;20646;-79
2023/02/23 08:38:59;;;;;;;5.30;3.70;;;8.50;99.90;;;;;;5134435;28;20224;-80
2023/02/23 08:41:26;;;;;;;5.87;3.13;;;8.50;99.90;;;;;;5135637;27;20170;-79
2023/02/23 08:43:52;;;;;;;5.13;3.50;;;8.50;99.90;;;;;;5133855;28;20577;-81
2023/02/23 08:46:19;;;;;;;4.17;3.00;;;8.60;99.90;;;;;;5134061;28;20199;-81
2023/02/23 08:48:45;;;;;;;6.13;2.80;;;8.60;99.90;;;;;;5133666;28;20222;-80
2023/02/23 08:51:13;;;;;;;5.90;3.00;;;8.60;99.90;;;;;;5134548;27;20254;-80
2023/02/23 08:53:39;;;;;;;4.37;2.90;;;8.70;99.90;;;;;;5134225;27;20183;-80
2023/02/23 08:56:06;;;;;;;6.27;2.93;;;8.80;99.90;;;;;;5133039;28;20197;-80
2023/02/23 08:58:34;;;;;;;4.40;2.83;;;8.80;99.90;;;;;;5132500;28;20166;-81
2023/02/23 09:01:00;;;;;;;8.00;4.37;;;8.90;99.90;;;;;;5133212;27;20163;-81
2023/02/23 09:03:29;;;;;;;3.57;2.40;;;9.10;99.90;;;;;;5131773;27;20224;-81
2023/02/23 09:05:56;;;;;;;3.03;2.50;;;9.20;99.90;;;;;;5133025;27;20198;-81
2023/02/23 09:08:22;;;;;;;3.20;2.13;;;9.20;99.90;;;;;;5138020;27;20175;-81
2023/02/23 09:10:48;;;;;;;5.73;2.57;;;9.30;99.90;;;;;;5137589;27;20236;-81
2023/02/23 09:13:14;;;;;;;3.73;2.07;;;9.30;99.90;;;;;;5137308;27;20680;-81
2023/02/23 09:15:41;;;;;;;3.00;1.73;;;9.40;99.90;;;;;;5136201;28;20702;-81
2023/02/23 09:18:09;;;;;;;6.50;2.70;;;9.40;99.90;;;;;;5136362;28;20167;-81
2023/02/23 09:20:35;;;;;;;4.67;2.53;;;9.40;99.90;;;;;;5136302;28;20174;-81
2023/02/23 09:23:01;;;;;;;3.57;2.50;;;9.30;99.90;;;;;;5136725;28;20266;-81
2023/02/23 09:25:28;;;;;;;3.73;1.67;;;9.30;99.90;;;;;;5138499;27;20195;-81
2023/02/23 09:28:01;;;;;;;3.20;2.40;;;9.30;99.90;;;;;;5137749;27;20248;-81
2023/02/23 09:30:27;;;;;;;5.37;2.20;;;9.20;99.90;;;;;;5136128;28;20160;-81
2023/02/23 09:32:55;;;;;;;5.13;2.50;;;9.10;99.90;;;;;;5135666;28;20207;-81
2023/02/23 09:35:23;;;;;;;5.20;2.50;;;9.20;99.90;;;;;;5135490;28;20171;-81
2023/02/23 09:37:51;;;;;;;4.40;2.17;;;9.20;99.90;;;;;;5137600;27;20232;-82
2023/02/23 09:40:24;;;;;;;4.63;2.80;;;9.10;99.90;;;;;;5137873;27;20171;-81
2023/02/23 09:43:01;;;;;;;5.73;2.80;;;9.10;99.90;;;;;;5135511;27;20258;-82
2023/02/23 09:45:53;;;;;;;4.53;2.80;;;9.00;99.90;;;;;;5122382;28;20669;-82
2023/02/23 09:48:25;;;;;;;2.83;2.20;;;8.90;99.90;;;;;;5122956;28;20175;-82
2023/02/23 09:50:58;;;;;;;3.93;2.10;;;8.80;99.90;;;;;;5122762;28;20176;-82
2023/02/23 10:00:39;;;;;;;5.13;2.30;;;8.50;99.90;;;;;;5139005;27;20616;-79
2023/02/23 10:08:33;;;;;;;6.17;2.50;;;8.40;99.90;;;;;;5139321;27;20281;-80
2023/02/23 10:15:35;;;;;;;3.20;1.70;;;8.40;99.90;;;;;;5140109;27;20278;-79
2023/02/23 10:21:09;;;;;;;7.93;2.00;;;8.60;99.90;;;;;;5141180;27;20272;-79
2023/02/23 10:25:31;;;;;;;3.43;2.07;;;8.70;99.90;;;;;;5137542;27;20294;-79
2023/02/23 10:30:34;;;;;;;4.23;2.10;;;8.70;99.90;;;;;;5137682;27;20762;-79
2023/02/23 10:35:30;;;;;;;3.90;1.90;;;8.90;99.90;;;;;;5137231;27;20616;-80
2023/02/23 10:38:29;;;;;;;4.77;2.70;;;8.90;99.90;;;;;;5137228;27;20279;-80
2023/02/23 10:40:56;;;;;;;3.03;1.80;;;9.10;99.90;;;;;;5118703;28;20186;-80
2023/02/23 10:43:22;;;;;;;2.77;1.60;;;9.20;99.90;;;;;;5137046;28;20171;-80
2023/02/23 10:45:50;;;;;;;2.77;1.97;;;9.20;99.90;;;;;;5120592;28;20679;-80
2023/02/23 10:48:22;;;;;;;3.43;2.17;;;9.10;99.90;;;;;;5136291;28;20177;-80
2023/02/23 10:50:51;;;;;;;5.50;2.50;;;9.30;99.90;;;;;;5135055;28;20183;-80
2023/02/23 10:53:34;;;;;;;3.63;1.80;;;9.50;99.90;;;;;;5134255;28;20186;-80
2023/02/23 10:56:12;;;;;;;3.37;1.93;;;9.60;99.90;;;;;;5133720;28;20198;-80
2023/02/23 10:58:49;;;;;;;8.73;5.83;;;9.80;99.90;;;;;;5134066;28;20224;-80
2023/02/23 11:01:44;;;;;;;11.70;7.47;;;9.90;99.90;;;;;;5133318;28;20186;-81
2023/02/23 11:04:28;;;;;;;3.80;2.57;;;10.00;99.90;;;;;;5133985;27;20584;-80
2023/02/23 11:07:20;;;;;;;4.03;2.70;;;10.20;99.90;;;;;;5134154;27;20254;-80
2023/02/23 11:09:45;;;;;;;6.60;2.17;;;10.40;99.90;;;;;;5133032;28;20525;-80
2023/02/23 11:12:28;;;;;;;3.10;1.67;;;10.60;99.90;;;;;;5134346;27;20659;-80
2023/02/23 11:14:58;;;;;;;1.73;1.40;;;10.80;99.90;;;;;;5133732;28;20178;-81
2023/02/23 11:17:33;;;;;;;3.53;1.67;;;10.80;99.90;;;;;;5134410;28;20241;-81
2023/02/23 11:20:03;;;;;;;3.67;1.40;;;10.90;99.90;;;;;;5134555;28;20200;-81
2023/02/23 11:22:36;;;;;;;2.13;1.20;;;10.90;99.90;;;;;;5135943;28;20505;-80
2023/02/23 11:25:16;;;;;;;2.37;1.20;;;11.00;99.90;;;;;;5135485;27;20167;-81
2023/02/23 11:27:50;;;;;;;1.93;1.20;;;11.20;99.90;;;;;;5135262;27;20635;-80
2023/02/23 11:30:20;;;;;;;4.23;1.60;;;11.50;99.90;;;;;;5136451;27;20542;-80
2023/02/23 11:32:55;;;;;;;4.37;2.00;;;11.50;99.90;;;;;;5136538;27;20160;-81
2023/02/23 11:35:20;;;;;;;5.97;1.60;;;11.80;99.90;;;;;;5135026;27;20612;-80
2023/02/23 11:37:47;;;;;;;3.03;1.60;;;12.50;99.90;;;;;;5135864;27;20218;-81
2023/02/23 11:40:27;;;;;;;2.90;1.40;;;13.00;99.90;;;;;;5135814;28;20207;-81
2023/02/23 11:42:56;;;;;;;7.27;2.03;;;13.20;99.90;;;;;;5136572;28;20171;-81
2023/02/23 11:45:25;;;;;;;3.73;1.90;;;13.20;99.90;;;;;;5135796;28;20211;-81
2023/02/23 11:47:54;;;;;;;4.90;1.90;;;13.60;99.90;;;;;;5132678;28;20176;-81
2023/02/23 11:50:37;;;;;;;4.43;2.07;;;14.10;99.90;;;;;;5120204;28;20192;-80
2023/02/23 11:53:11;;;;;;;3.93;2.43;;;14.80;99.90;;;;;;5119419;28;20168;-80
2023/02/23 11:55:37;;;;;;;4.30;3.30;;;15.50;99.90;;;;;;5118806;28;20199;-81
2023/02/23 11:58:28;;;;;;;5.13;2.20;;;15.60;99.90;;;;;;5117846;28;20286;-80
2023/02/23 12:01:03;;;;;;;5.23;2.77;;;15.10;99.90;;;;;;5116317;28;20175;-80
2023/02/23 12:03:32;;;;;;;4.57;2.47;;;14.90;99.90;;;;;;5118104;28;20265;-81
2023/02/23 12:05:58;;;;;;;4.20;2.33;;;14.80;99.90;;;;;;5122281;28;20192;-82
2023/02/23 12:08:33;;;;;;;5.57;1.70;;;14.70;99.90;;;;;;5122381;28;20176;-81
2023/02/23 12:11:05;;;;;;;3.63;1.60;;;15.30;99.90;;;;;;5120169;28;20172;-81
2023/02/23 12:14:11;;;;;;;4.00;1.97;;;16.50;99.90;;;;;;5122369;28;20179;-81
2023/02/23 12:16:50;;;;;;;7.00;2.50;;;17.80;99.90;;;;;;5116513;28;20215;-82
2023/02/23 12:19:45;;;;;;;6.37;2.07;;;17.30;99.90;;;;;;5122263;28;20171;-82
2023/02/23 12:22:28;;;;;;;6.63;2.20;;;16.30;99.90;;;;;;5120412;28;20194;-81
2023/02/23 12:25:22;;;;;;;4.97;2.17;;;15.50;99.90;;;;;;5122297;28;20182;-81
2023/02/23 12:27:56;;;;;;;5.03;2.33;;;15.20;99.90;;;;;;5124119;28;20523;-81
2023/02/23 12:30:37;;;;;;;8.30;3.20;;;14.90;99.90;;;;;;5121886;28;20267;-81
2023/02/23 12:33:05;;;;;;;8.60;2.40;;;14.10;99.90;;;;;;5122317;28;20620;-82
2023/02/23 12:35:37;;;;;;;5.67;2.27;;;13.40;99.90;;;;;;5122583;28;20689;-81
2023/02/23 12:38:16;;;;;;;5.67;2.13;;;13.00;99.90;;;;;;5121114;28;20223;-81
2023/02/23 12:40:43;;;;;;;8.90;2.57;;;12.70;99.90;;;;;;5121111;28;20171;-81
2023/02/23 12:43:23;;;;;;;4.43;2.30;;;12.60;99.90;;;;;;5121843;28;20333;-81
2023/02/23 12:46:02;;;;;;;5.67;1.90;;;12.50;99.90;;;;;;5120088;28;20200;-80
2023/02/23 12:48:32;;;;;;;11.10;2.37;;;12.40;99.90;;;;;;5121213;28;20167;-80
2023/02/23 12:51:00;;;;;;;5.03;2.23;;;12.40;99.90;;;;;;5121785;28;20516;-80
2023/02/23 12:53:32;;;;;;;3.83;2.13;;;12.50;99.90;;;;;;5120354;28;20184;-81
2023/02/23 12:56:12;;;;;;;5.43;1.73;;;12.70;99.90;;;;;;5122436;28;20218;-82
2023/02/23 12:58:57;;;;;;;4.53;1.90;;;12.60;99.90;;;;;;5122572;28;20164;-81
2023/02/23 13:01:30;;;;;;;6.57;2.30;;;12.70;99.90;;;;;;5121086;28;20170;-81
2023/02/23 13:04:02;;;;;;;6.07;2.73;;;12.60;99.90;;;;;;5122085;28;20187;-81
2023/02/23 13:06:49;;;;;;;5.33;1.70;;;12.50;99.90;;;;;;5121715;28;20193;-81
2023/02/23 13:09:43;;;;;;;4.73;2.07;;;12.40;99.90;;;;;;5123300;28;20174;-81
2023/02/23 13:12:54;;;;;;;13.97;2.13;;;12.30;99.90;;;;;;5115322;28;20191;-81
2023/02/23 13:15:34;;;;;;;4.63;2.23;;;12.10;99.90;;;;;;5063829;28;20227;-81
2023/02/23 13:18:22;;;;;;;9.23;2.40;;;12.00;99.90;;;;;;5118931;28;20319;-81
2023/02/23 13:21:17;;;;;;;5.80;2.53;;;11.90;99.90;;;;;;5113762;28;20543;-81
2023/02/23 13:23:53;;;;;;;6.33;2.80;;;11.80;99.90;;;;;;5121400;28;20585;-81
2023/02/23 13:27:08;;;;;;;7.90;2.83;;;11.80;99.90;;;;;;5121661;28;20220;-81
2023/02/23 13:29:42;;;;;;;11.10;4.13;;;11.90;99.90;;;;;;5123390;28;20190;-81
2023/02/23 13:32:12;;;;;;;4.87;2.90;;;12.00;99.90;;;;;;5124768;28;20223;-80
2023/02/23 13:34:45;;;;;;;5.13;2.80;;;12.10;99.90;;;;;;5118046;28;20185;-80
2023/02/23 13:37:15;;;;;;;5.03;2.73;;;12.20;99.90;;;;;;5119798;28;20208;-80
2023/02/23 13:39:46;;;;;;;6.23;3.73;;;12.20;99.90;;;;;;5118613;28;20178;-81
2023/02/23 13:42:46;;;;;;;7.03;3.33;;;12.30;99.90;;;;;;5119019;28;20205;-81
2023/02/23 13:45:33;;;;;;;12.87;3.37;;;12.40;99.90;;;;;;5119282;28;20580;-80
2023/02/23 13:48:11;;;;;;;7.30;2.10;;;12.40;99.90;;;;;;5120332;28;20717;-81
2023/02/23 13:50:58;;;;;;;5.10;1.73;;;12.40;99.90;;;;;;5119118;28;20272;-81
2023/02/23 13:53:46;;;;;;;5.27;1.90;;;12.40;99.90;;;;;;5116615;28;20180;-80
2023/02/23 13:56:16;;;;;;;8.57;2.03;;;12.40;99.90;;;;;;5118317;28;20197;-81
2023/02/23 13:58:47;;;;;;;5.20;2.10;;;12.40;99.90;;;;;;5119264;28;20179;-81
2023/02/23 14:01:30;;;;;;;12.27;2.03;;;12.30;99.90;;;;;;5119845;28;20161;-81
2023/02/23 14:04:00;;;;;;;6.93;2.07;;;12.10;99.90;;;;;;5122103;28;20156;-81
2023/02/23 14:06:28;;;;;;;5.60;2.07;;;12.00;99.90;;;;;;5121292;28;20203;-81
2023/02/23 14:09:06;;;;;;;6.93;2.27;;;11.90;99.90;;;;;;5119874;28;20186;-81
2023/02/23 14:11:43;;;;;;;7.60;2.90;;;11.80;99.90;;;;;;5119987;28;20246;-81
2023/02/23 14:14:34;;;;;;;9.47;2.53;;;11.80;99.90;;;;;;5118444;28;20167;-81
2023/02/23 14:17:18;;;;;;;5.80;2.50;;;11.70;99.90;;;;;;5111744;28;20226;-81
2023/02/23 14:32:23;;;;;;;9.70;2.77;;;11.40;99.90;;;;;;5137928;27;20275;-81
2023/02/23 14:36:21;;;;;;;10.77;3.07;;;11.40;99.90;;;;;;5138686;27;20636;-81
2023/02/23 14:40:23;;;;;;;5.30;2.40;;;11.60;99.90;;;;;;5119516;27;20268;-81
2023/02/23 14:42:51;;;;;;;6.37;2.43;;;11.80;99.90;;;;;;5097291;28;20160;-81
2023/02/23 14:45:29;;;;;;;5.63;1.57;;;11.80;99.90;;;;;;5100290;28;20195;-81
2023/02/23 14:48:00;;;;;;;7.63;2.23;;;11.80;99.90;;;;;;5115501;28;20220;-80
2023/02/23 14:50:32;;;;;;;5.53;2.47;;;11.90;99.90;;;;;;5114402;28;20175;-80
2023/02/23 14:53:00;;;;;;;6.50;2.13;;;11.80;99.90;;;;;;5120087;28;20263;-79
2023/02/23 14:55:34;;;;;;;4.43;2.33;;;11.90;99.90;;;;;;5095523;28;20206;-79
2023/02/23 14:58:02;;;;;;;8.67;2.50;;;11.90;99.90;;;;;;5093744;28;20637;-80
2023/02/23 15:00:39;;;;;;;5.73;2.73;;;11.90;99.90;;;;;;5094503;28;20182;-80
2023/02/23 15:03:11;;;;;;;5.87;2.53;;;11.80;99.90;;;;;;5095218;28;20176;-80
2023/02/23 15:05:56;;;;;;;4.67;3.00;;;11.80;99.90;;;;;;5095521;28;20187;-80
2023/02/23 15:08:27;;;;;;;6.40;3.00;;;11.80;99.90;;;;;;5114286;28;20175;-80
2023/02/23 15:11:10;;;;;;;7.30;2.97;;;11.70;99.90;;;;;;5096040;28;20195;-80
2023/02/23 15:13:39;;;;;;;6.03;2.50;;;11.60;99.90;;;;;;5095862;28;20706;-80
2023/02/23 15:16:14;;;;;;;4.70;2.10;;;11.60;99.90;;;;;;5113808;28;20214;-80
2023/02/23 15:18:41;;;;;;;3.13;2.20;;;11.50;99.90;;;;;;5095641;28;20213;-79
2023/02/23 15:24:11;;;;;;;4.50;2.53;;;11.40;99.90;;;;;;5136300;27;20271;-80
2023/02/23 15:29:13;;;;;;;4.83;2.13;;;11.20;99.90;;;;;;5138688;27;20267;-79
2023/02/23 15:34:54;;;;;;;6.97;2.37;;;11.00;99.90;;;;;;5135850;27;20271;-79
2023/02/23 15:40:03;;;;;;;11.60;3.10;;;10.90;99.90;;;;;;5135797;27;20271;-79
2023/02/23 15:44:30;;;;;;;4.97;2.80;;;10.90;99.90;;;;;;5135691;27;20739;-79
2023/02/23 15:49:40;;;;;;;4.87;2.73;;;10.80;99.90;;;;;;5135785;27;20271;-80
2023/02/23 15:55:50;;;;;;;6.57;2.40;;;10.70;99.90;;;;;;5135978;27;20474;-80
2023/02/23 16:02:56;;;;;;;9.87;2.00;;;10.50;99.90;;;;;;5135234;27;20693;-79
